createdAt,value
2022-09-24T00:01:38.454Z,13.10
2022-09-24T00:04:07.945Z,13.10
2022-09-24T00:06:38.955Z,13.00
2022-09-24T00:09:05.869Z,13.00
2022-09-24T00:14:00.208Z,13.00
2022-09-24T00:16:31.367Z,13.00
2022-09-24T00:18:59.059Z,12.90
2022-09-24T00:21:28.939Z,12.90
2022-09-24T00:24:00.960Z,12.90
2022-09-24T00:29:17.061Z,12.90
2022-09-24T00:34:10.996Z,12.90
2022-09-24T00:36:38.072Z,12.80
2022-09-24T00:39:05.857Z,12.80
2022-09-24T00:41:36.058Z,12.80
2022-09-24T00:44:40.822Z,12.70
2022-09-24T00:47:27.323Z,12.70
2022-09-24T00:50:08.097Z,12.80
2022-09-24T00:52:40.617Z,12.70
2022-09-24T00:55:08.692Z,12.70
2022-09-24T00:57:36.719Z,12.70
2022-09-24T01:00:05.403Z,12.70
2022-09-24T01:09:54.131Z,12.60
2022-09-24T01:15:06.909Z,12.50
2022-09-24T01:17:56.953Z,12.50
2022-09-24T01:20:41.868Z,12.50
2022-09-24T01:23:48.522Z,12.50
2022-09-24T01:26:32.317Z,12.40
2022-09-24T01:29:06.919Z,12.40
2022-09-24T01:31:50.613Z,12.40
2022-09-24T01:34:22.506Z,12.40
2022-09-24T01:36:50.635Z,12.40
2022-09-24T01:39:18.533Z,12.50
2022-09-24T01:41:45.781Z,12.50
2022-09-24T01:44:12.985Z,12.50
2022-09-24T01:46:42.337Z,12.50
2022-09-24T01:51:45.243Z,12.50
2022-09-24T01:54:50.202Z,12.60
2022-09-24T01:57:36.068Z,12.60
2022-09-24T02:00:21.229Z,12.60
2022-09-24T02:03:08.883Z,12.60
2022-09-24T02:05:48.072Z,12.70
2022-09-24T02:08:22.244Z,12.70
2022-09-24T02:11:08.396Z,12.70
2022-09-24T02:13:55.067Z,12.80
2022-09-24T02:16:26.478Z,12.80
2022-09-24T02:18:56.983Z,12.80
2022-09-24T02:21:25.658Z,12.80
2022-09-24T02:23:57.195Z,12.80
2022-09-24T02:31:24.592Z,12.80
2022-09-24T02:34:10.770Z,12.70
2022-09-24T02:36:39.043Z,12.60
2022-09-24T02:39:05.823Z,12.60
2022-09-24T02:41:33.904Z,12.50
2022-09-24T02:44:00.772Z,12.50
2022-09-24T02:48:54.784Z,12.50
2022-09-24T02:58:43.181Z,12.20
2022-09-24T03:03:37.012Z,12.10
2022-09-24T03:06:03.729Z,12.00
2022-09-24T03:08:31.214Z,12.00
2022-09-24T03:10:57.937Z,11.90
2022-09-24T03:21:04.895Z,11.90
2022-09-24T03:23:31.774Z,11.90
2022-09-24T03:25:59.084Z,11.90
2022-09-24T03:28:26.440Z,11.90
2022-09-24T03:33:43.738Z,11.80
2022-09-24T03:36:17.757Z,11.80
2022-09-24T03:38:45.889Z,11.80
2022-09-24T03:41:13.508Z,11.90
2022-09-24T03:43:40.757Z,11.90
2022-09-24T03:46:08.998Z,11.90
2022-09-24T03:48:37.306Z,12.00
2022-09-24T03:51:15.831Z,12.00
2022-09-24T03:53:42.790Z,12.00
2022-09-24T03:56:09.629Z,12.00
2022-09-24T03:58:39.050Z,12.00
2022-09-24T04:01:10.616Z,12.10
2022-09-24T04:03:37.754Z,12.00
2022-09-24T04:06:05.372Z,12.00
2022-09-24T04:08:32.565Z,12.00
2022-09-24T04:10:59.624Z,12.00
2022-09-24T04:15:54.912Z,12.00
2022-09-24T04:23:16.256Z,12.00
2022-09-24T04:25:44.468Z,12.00
2022-09-24T04:30:38.953Z,12.00
2022-09-24T04:33:06.325Z,12.00
2022-09-24T04:35:36.133Z,12.00
2022-09-24T04:38:04.249Z,12.00
2022-09-24T04:40:31.997Z,12.00
2022-09-24T04:42:59.075Z,12.00
2022-09-24T04:45:26.726Z,12.00
2022-09-24T04:47:57.473Z,12.00
2022-09-24T04:50:29.161Z,12.00
2022-09-24T04:52:56.838Z,11.90
2022-09-24T04:55:24.147Z,11.90
2022-09-24T04:57:51.076Z,11.90
2022-09-24T05:00:20.784Z,11.90
2022-09-24T05:12:40.823Z,11.90
2022-09-24T05:15:08.028Z,11.90
2022-09-24T05:17:39.022Z,11.90
2022-09-24T05:20:07.095Z,11.90
2022-09-24T05:22:33.887Z,11.90
2022-09-24T05:25:00.550Z,11.90
2022-09-24T05:27:27.188Z,11.90
2022-09-24T05:32:21.374Z,11.90
2022-09-24T05:37:15.940Z,11.90
2022-09-24T05:39:42.591Z,11.90
2022-09-24T05:42:15.607Z,11.90
2022-09-24T05:47:16.351Z,11.90
2022-09-24T05:49:42.970Z,12.00
2022-09-24T05:52:09.996Z,12.00
2022-09-24T05:57:03.861Z,12.10
2022-09-24T05:59:30.525Z,12.10
2022-09-24T06:09:18.863Z,12.20
2022-09-24T06:14:13.219Z,12.30
2022-09-24T06:19:07.135Z,12.30
2022-09-24T06:24:01.093Z,12.40
2022-09-24T06:26:28.965Z,12.50
2022-09-24T06:28:58.470Z,12.50
2022-09-24T06:31:27.521Z,12.60
2022-09-24T06:34:08.938Z,12.70
2022-09-24T06:39:04.222Z,12.80
2022-09-24T06:41:30.895Z,12.80
2022-09-24T06:43:57.646Z,12.90
2022-09-24T06:53:53.024Z,13.00
2022-09-24T06:56:19.726Z,13.10
2022-09-24T06:58:46.640Z,13.10
2022-09-24T07:03:40.748Z,13.20
2022-09-24T07:08:35.216Z,13.30
2022-09-24T07:13:29.216Z,13.40
2022-09-24T07:18:23.295Z,13.40
2022-09-24T07:20:56.859Z,13.50
2022-09-24T07:23:23.733Z,13.60
2022-09-24T07:28:18.944Z,13.70
2022-09-24T07:30:45.679Z,13.80
2022-09-24T07:33:12.403Z,13.90
2022-09-24T07:35:39.553Z,13.90
2022-09-24T07:38:12.371Z,13.90
2022-09-24T07:43:13.667Z,13.90
2022-09-24T07:45:41.572Z,13.90
2022-09-24T07:48:10.542Z,14.00
2022-09-24T07:50:41.842Z,14.00
2022-09-24T07:53:12.887Z,14.10
2022-09-24T07:58:10.996Z,14.20
2022-09-24T08:03:05.530Z,14.50
2022-09-24T08:10:28.310Z,14.60
2022-09-24T08:12:56.937Z,14.60
2022-09-24T08:15:23.847Z,14.60
2022-09-24T08:20:18.304Z,14.60
2022-09-24T08:22:45.169Z,14.70
2022-09-24T08:25:11.954Z,14.70
2022-09-24T08:30:06.951Z,14.80
2022-09-24T08:32:33.967Z,15.00
2022-09-24T08:35:00.654Z,15.10
2022-09-24T08:37:28.783Z,15.30
2022-09-24T08:39:55.884Z,15.50
2022-09-24T08:42:35.740Z,15.80
2022-09-24T08:45:23.200Z,16.10
2022-09-24T08:47:57.184Z,16.30
2022-09-24T08:50:35.950Z,16.40
2022-09-24T08:53:32.397Z,16.50
2022-09-24T08:56:01.337Z,16.60
2022-09-24T08:58:49.515Z,16.70
2022-09-24T09:03:53.915Z,16.90
2022-09-24T09:06:45.198Z,17.00
2022-09-24T09:09:17.582Z,17.10
2022-09-24T09:11:48.743Z,17.20
2022-09-24T09:14:29.265Z,17.10
2022-09-24T09:17:06.691Z,16.90
2022-09-24T09:19:34.630Z,17.10
2022-09-24T09:22:16.646Z,17.10
2022-09-24T09:24:52.359Z,17.20
2022-09-24T09:27:20.444Z,17.10
2022-09-24T09:29:57.475Z,17.10
2022-09-24T09:32:48.474Z,17.20
2022-09-24T09:35:29.730Z,17.30
2022-09-24T09:38:05.148Z,17.30
2022-09-24T09:40:37.800Z,17.50
2022-09-24T09:43:14.792Z,17.70
2022-09-24T09:46:05.377Z,17.90
2022-09-24T09:48:48.947Z,18.10
2022-09-24T09:51:23.330Z,18.10
2022-09-24T09:53:57.285Z,18.00
2022-09-24T09:56:30.660Z,17.90
2022-09-24T09:59:12.316Z,18.00
2022-09-24T10:01:41.324Z,17.80
2022-09-24T10:04:39.507Z,17.70
2022-09-24T10:07:10.593Z,17.90
2022-09-24T10:09:38.612Z,18.10
2022-09-24T10:12:09.272Z,18.30
2022-09-24T10:17:05.744Z,18.70
2022-09-24T10:19:36.765Z,18.30
2022-09-24T10:22:18.601Z,18.30
2022-09-24T10:27:14.655Z,18.30
2022-09-24T10:29:59.918Z,18.30
2022-09-24T10:32:29.668Z,18.30
2022-09-24T10:35:01.776Z,18.30
2022-09-24T10:37:29.800Z,18.20
2022-09-24T10:40:16.047Z,17.90
2022-09-24T10:45:15.761Z,17.80
2022-09-24T10:47:57.508Z,17.80
2022-09-24T10:50:30.268Z,17.80
2022-09-24T10:53:19.211Z,17.60
2022-09-24T10:56:22.721Z,17.50
2022-09-24T10:59:04.384Z,17.30
2022-09-24T11:04:30.514Z,17.10
2022-09-24T11:07:20.210Z,17.10
2022-09-24T11:09:55.179Z,16.90
2022-09-24T11:12:35.707Z,16.90
2022-09-24T11:15:24.135Z,17.00
2022-09-24T11:18:14.422Z,16.90
2022-09-24T11:20:53.799Z,16.90
2022-09-24T11:28:57.618Z,17.10
2022-09-24T11:32:06.804Z,17.20
2022-09-24T11:35:05.623Z,17.40
2022-09-24T11:37:39.327Z,17.70
2022-09-24T11:40:27.678Z,17.90
2022-09-24T11:43:25.363Z,17.90
2022-09-24T11:46:30.006Z,18.10
2022-09-24T11:49:33.236Z,18.10
2022-09-24T11:52:15.102Z,18.00
2022-09-24T11:54:47.779Z,18.30
2022-09-24T11:57:25.045Z,18.30
2022-09-24T11:59:54.721Z,18.50
2022-09-24T12:02:30.499Z,18.50
2022-09-24T12:05:15.472Z,18.60
2022-09-24T12:07:47.624Z,18.50
2022-09-24T12:10:34.548Z,18.30
2022-09-24T12:13:30.819Z,18.10
2022-09-24T12:15:57.602Z,18.00
2022-09-24T12:18:24.262Z,18.20
2022-09-24T12:20:56.937Z,18.10
2022-09-24T12:23:28.209Z,18.20
2022-09-24T12:25:57.417Z,18.20
2022-09-24T12:28:45.647Z,18.30
2022-09-24T12:32:03.319Z,18.30
2022-09-24T12:34:58.451Z,18.30
2022-09-24T12:37:33.386Z,18.20
2022-09-24T12:40:03.851Z,18.20
2022-09-24T12:42:37.084Z,18.30
2022-09-24T12:45:05.341Z,18.40
2022-09-24T12:47:37.482Z,18.50
2022-09-24T12:50:08.345Z,18.50
2022-09-24T12:52:42.881Z,18.50
2022-09-24T12:55:26.109Z,18.50
2022-09-24T12:58:07.308Z,18.30
2022-09-24T13:00:47.155Z,18.30
2022-09-24T13:03:34.192Z,18.20
2022-09-24T13:06:01.835Z,18.10
2022-09-24T13:08:40.259Z,18.00
2022-09-24T13:11:25.758Z,15.50
2022-09-24T13:14:13.768Z,17.90
2022-09-24T13:16:43.926Z,17.90
2022-09-24T13:19:44.433Z,18.00
2022-09-24T13:22:28.139Z,18.00
2022-09-24T13:25:10.363Z,18.10
2022-09-24T13:27:41.179Z,18.30
2022-09-24T13:30:22.912Z,18.40
2022-09-24T13:32:58.693Z,18.50
2022-09-24T13:35:30.247Z,18.50
2022-09-24T13:38:22.324Z,18.70
2022-09-24T13:40:56.676Z,18.70
2022-09-24T13:43:45.318Z,18.50
2022-09-24T13:46:16.635Z,18.50
2022-09-24T13:48:53.560Z,18.60
2022-09-24T13:51:26.467Z,18.60
2022-09-24T13:53:55.829Z,18.50
2022-09-24T13:56:23.307Z,18.40
2022-09-24T14:01:30.054Z,18.50
2022-09-24T14:04:07.139Z,18.30
2022-09-24T14:06:44.603Z,18.30
2022-09-24T14:09:23.143Z,18.40
2022-09-24T14:11:52.134Z,18.40
2022-09-24T14:14:21.159Z,18.40
2022-09-24T14:16:47.844Z,18.50
2022-09-24T14:19:16.135Z,18.40
2022-09-24T14:21:56.769Z,18.40
2022-09-24T14:24:27.370Z,18.40
2022-09-24T14:27:11.711Z,18.50
2022-09-24T14:29:56.859Z,18.40
2022-09-24T14:32:32.248Z,18.30
2022-09-24T14:35:03.523Z,18.30
2022-09-24T14:37:37.159Z,18.30
2022-09-24T14:40:15.507Z,18.40
2022-09-24T14:42:49.054Z,18.30
2022-09-24T14:45:22.232Z,18.20
2022-09-24T14:48:00.041Z,18.20
2022-09-24T14:50:36.394Z,18.30
2022-09-24T14:53:22.023Z,18.30
2022-09-24T14:55:49.829Z,18.20
2022-09-24T14:58:33.645Z,18.10
2022-09-24T15:01:07.120Z,18.00
2022-09-24T15:03:33.703Z,18.00
2022-09-24T15:06:05.727Z,17.90
2022-09-24T15:11:05.320Z,17.70
2022-09-24T15:13:35.848Z,17.60
2022-09-24T15:16:31.819Z,17.60
2022-09-24T15:19:19.511Z,17.50
2022-09-24T15:21:51.199Z,17.40
2022-09-24T15:24:19.870Z,17.30
2022-09-24T15:26:50.439Z,17.40
2022-09-24T15:29:24.159Z,17.40
2022-09-24T15:31:52.243Z,17.30
2022-09-24T15:34:20.504Z,17.40
2022-09-24T15:36:55.631Z,17.40
2022-09-24T15:44:25.344Z,17.30
2022-09-24T15:49:22.825Z,17.20
2022-09-24T15:52:07.541Z,17.10
2022-09-24T15:57:01.363Z,16.90
2022-09-24T16:01:59.652Z,16.70
2022-09-24T16:06:53.420Z,16.60
2022-09-24T16:09:24.175Z,16.60
2022-09-24T16:11:50.802Z,16.60
2022-09-24T16:16:44.539Z,16.50
2022-09-24T16:29:03.321Z,16.40
2022-09-24T16:33:57.377Z,16.30
2022-09-24T16:38:51.535Z,16.20
2022-09-24T16:43:45.273Z,16.20
2022-09-24T16:46:16.311Z,16.20
2022-09-24T16:48:49.566Z,16.10
2022-09-24T16:53:48.567Z,15.90
2022-09-24T16:56:17.351Z,15.90
2022-09-24T16:58:46.303Z,15.80
2022-09-24T17:01:15.823Z,15.80
2022-09-24T17:03:43.425Z,15.70
2022-09-24T17:06:21.412Z,15.60
2022-09-24T17:09:07.188Z,15.60
2022-09-24T17:11:34.335Z,15.50
2022-09-24T17:14:01.457Z,15.50
2022-09-24T17:16:28.782Z,15.40
2022-09-24T17:21:23.250Z,15.40
2022-09-24T17:23:50.844Z,15.40
2022-09-24T17:26:19.658Z,15.40
2022-09-24T17:28:47.899Z,15.30
2022-09-24T17:31:17.255Z,15.30
2022-09-24T17:33:45.295Z,15.30
2022-09-24T17:36:13.986Z,15.30
2022-09-24T17:41:10.527Z,15.20
2022-09-24T17:46:22.480Z,15.20
2022-09-24T17:48:52.226Z,15.20
2022-09-24T17:51:24.420Z,15.20
2022-09-24T17:53:53.805Z,15.20
2022-09-24T17:56:23.166Z,15.20
2022-09-24T17:58:50.349Z,15.20
2022-09-24T18:01:20.125Z,15.10
2022-09-24T18:03:48.724Z,15.10
2022-09-24T18:08:44.865Z,15.10
2022-09-24T18:11:17.262Z,15.10
2022-09-24T18:13:44.697Z,15.10
2022-09-24T18:16:16.737Z,15.20
2022-09-24T18:18:44.306Z,15.10
2022-09-24T18:21:13.590Z,15.10
2022-09-24T18:26:15.975Z,15.10
2022-09-24T18:28:47.431Z,15.00
2022-09-24T18:31:14.958Z,15.00
2022-09-24T18:33:43.585Z,15.00
2022-09-24T18:36:13.918Z,15.00
2022-09-24T18:41:11.035Z,14.90
2022-09-24T18:43:37.863Z,15.00
2022-09-24T18:46:06.554Z,14.90
2022-09-24T18:48:33.883Z,14.90
2022-09-24T18:51:00.809Z,15.00
2022-09-24T18:53:31.347Z,14.90
2022-09-24T18:56:03.335Z,14.90
2022-09-24T19:01:05.325Z,14.90
2022-09-24T19:03:32.345Z,14.90
2022-09-24T19:06:04.773Z,14.80
2022-09-24T19:08:32.231Z,14.90
2022-09-24T19:11:07.563Z,14.90
2022-09-24T19:16:08.399Z,14.90
2022-09-24T19:18:36.128Z,14.90
2022-09-24T19:21:06.515Z,14.90
2022-09-24T19:23:41.156Z,14.80
2022-09-24T19:26:09.637Z,14.80
2022-09-24T19:28:38.860Z,14.80
2022-09-24T19:31:06.270Z,14.80
2022-09-24T19:36:02.825Z,14.80
2022-09-24T19:38:32.301Z,14.80
2022-09-24T19:41:07.396Z,14.80
2022-09-24T19:43:34.559Z,14.90
2022-09-24T19:46:09.960Z,14.90
2022-09-24T19:48:38.736Z,14.90
2022-09-24T19:51:09.030Z,14.90
2022-09-24T19:56:08.719Z,14.90
2022-09-24T19:58:35.396Z,15.00
2022-09-24T20:01:03.873Z,15.00
2022-09-24T20:03:35.283Z,15.00
2022-09-24T20:06:11.657Z,15.10
2022-09-24T20:08:39.356Z,15.00
2022-09-24T20:11:08.697Z,15.00
2022-09-24T20:13:35.739Z,15.00
2022-09-24T20:16:04.300Z,15.00
2022-09-24T20:18:32.932Z,14.90
2022-09-24T20:21:03.743Z,14.90
2022-09-24T20:26:16.207Z,15.00
2022-09-24T20:28:43.119Z,14.90
2022-09-24T20:31:14.924Z,14.90
2022-09-24T20:33:43.091Z,14.90
2022-09-24T20:36:15.889Z,14.90
2022-09-24T20:38:45.425Z,14.90
2022-09-24T20:41:17.993Z,14.90
2022-09-24T20:43:47.940Z,14.90
2022-09-24T20:46:24.264Z,14.90
2022-09-24T20:48:53.113Z,14.90
2022-09-24T20:51:21.297Z,15.10
2022-09-24T20:53:49.535Z,14.90
2022-09-24T20:56:17.749Z,14.90
2022-09-24T21:01:12.003Z,14.80
2022-09-24T21:03:45.267Z,14.80
2022-09-24T21:06:14.784Z,14.80
2022-09-24T21:08:43.435Z,14.80
2022-09-24T21:11:12.379Z,14.70
2022-09-24T21:13:44.768Z,14.80
2022-09-24T21:16:12.269Z,14.80
2022-09-24T21:18:44.319Z,14.80
2022-09-24T21:21:17.369Z,14.80
2022-09-24T21:23:45.950Z,14.70
2022-09-24T21:26:19.613Z,14.80
2022-09-24T21:28:47.988Z,14.70
2022-09-24T21:31:16.911Z,14.80
2022-09-24T21:33:48.255Z,14.70
2022-09-24T21:36:19.372Z,14.70
2022-09-24T21:38:53.962Z,14.70
2022-09-24T21:41:35.445Z,14.70
2022-09-24T21:46:32.874Z,14.70
2022-09-24T21:49:01.127Z,14.70
2022-09-24T21:51:30.068Z,14.70
2022-09-24T21:54:02.310Z,14.60
2022-09-24T21:56:31.191Z,14.70
2022-09-24T21:58:58.493Z,14.70
2022-09-24T22:01:28.090Z,14.70
2022-09-24T22:04:00.042Z,14.60
2022-09-24T22:06:29.146Z,14.60
2022-09-24T22:08:57.909Z,14.60
2022-09-24T22:21:36.631Z,14.60
2022-09-24T22:24:04.005Z,14.60
2022-09-24T22:26:30.851Z,14.60
2022-09-24T22:28:58.398Z,14.50
2022-09-24T22:31:26.032Z,14.40
2022-09-24T22:36:38.739Z,14.40
2022-09-24T22:39:07.039Z,14.40
2022-09-24T22:41:38.453Z,14.40
2022-09-24T22:46:34.005Z,14.30
2022-09-24T22:51:28.445Z,14.30
2022-09-24T22:53:56.846Z,14.30
2022-09-24T22:56:25.477Z,14.30
2022-09-24T22:59:02.960Z,14.20
2022-09-24T23:01:38.530Z,14.30
2022-09-24T23:11:30.673Z,14.30
2022-09-24T23:14:03.205Z,14.30
2022-09-24T23:16:32.268Z,14.30
2022-09-24T23:19:04.244Z,14.30
2022-09-24T23:21:31.741Z,14.30
2022-09-24T23:24:01.162Z,14.30
2022-09-24T23:26:28.823Z,14.30
2022-09-24T23:28:56.978Z,14.30
2022-09-24T23:31:27.254Z,14.30
2022-09-24T23:33:56.296Z,14.30
2022-09-24T23:36:24.336Z,14.30
2022-09-24T23:38:51.289Z,14.30
2022-09-24T23:41:17.987Z,14.20
2022-09-24T23:46:13.659Z,14.20
2022-09-24T23:48:40.554Z,14.20
2022-09-24T23:51:08.467Z,14.10
2022-09-24T23:56:04.068Z,14.10
2022-09-24T23:58:31.342Z,14.20
